sensor_id;sensor_type;location;lat;lon;timestamp;P1;durP1;ratioP1;P2;durP2;ratioP2
5414;SDS011;2730;51.512;7.504;2022-09-27T05:02:19;19.35;;;7.78;;
5414;SDS011;2730;51.512;7.504;2022-09-27T05:04:46;20.38;;;10.23;;
5414;SDS011;2730;51.512;7.504;2022-09-27T05:07:13;27.55;;;11.05;;
5414;SDS011;2730;51.512;7.504;2022-09-27T05:09:40;28.15;;;12.93;;
5414;SDS011;2730;51.512;7.504;2022-09-27T05:12:07;31.63;;;13.73;;
5414;SDS011;2730;51.512;7.504;2022-09-27T05:14:34;30.92;;;13.60;;
5414;SDS011;2730;51.512;7.504;2022-09-27T05:17:01;28.77;;;14.68;;
5414;SDS011;2730;51.512;7.504;2022-09-27T05:19:29;28.30;;;14.93;;
5414;SDS011;2730;51.512;7.504;2022-09-27T05:21:57;27.42;;;15.70;;
5414;SDS011;2730;51.512;7.504;2022-09-27T05:24:23;31.38;;;15.77;;
5414;SDS011;2730;51.512;7.504;2022-09-27T05:26:52;38.63;;;15.93;;
5414;SDS011;2730;51.512;7.504;2022-09-27T05:29:18;30.77;;;14.98;;
5414;SDS011;2730;51.512;7.504;2022-09-27T05:31:45;30.88;;;14.32;;
5414;SDS011;2730;51.512;7.504;2022-09-27T05:34:13;34.17;;;15.05;;
5414;SDS011;2730;51.512;7.504;2022-09-27T05:36:41;28.60;;;14.02;;
5414;SDS011;2730;51.512;7.504;2022-09-27T05:39:08;31.75;;;15.80;;
5414;SDS011;2730;51.512;7.504;2022-09-27T05:41:35;28.73;;;13.52;;
5414;SDS011;2730;51.512;7.504;2022-09-27T05:44:02;32.67;;;14.15;;
5414;SDS011;2730;51.512;7.504;2022-09-27T05:46:30;26.40;;;13.40;;
5414;SDS011;2730;51.512;7.504;2022-09-27T05:48:57;31.00;;;13.40;;
5414;SDS011;2730;51.512;7.504;2022-09-27T05:51:23;36.00;;;13.45;;
5414;SDS011;2730;51.512;7.504;2022-09-27T05:53:52;32.67;;;11.65;;
5414;SDS011;2730;51.512;7.504;2022-09-27T05:56:19;24.90;;;12.77;;
5414;SDS011;2730;51.512;7.504;2022-09-27T05:58:46;26.92;;;12.60;;
5414;SDS011;2730;51.512;7.504;2022-09-27T06:01:12;25.73;;;11.55;;
5414;SDS011;2730;51.512;7.504;2022-09-27T06:03:39;22.13;;;10.15;;
5414;SDS011;2730;51.512;7.504;2022-09-27T06:06:07;24.20;;;9.65;;
5414;SDS011;2730;51.512;7.504;2022-09-27T06:08:35;19.40;;;9.80;;
5414;SDS011;2730;51.512;7.504;2022-09-27T06:11:06;15.93;;;8.70;;
5414;SDS011;2730;51.512;7.504;2022-09-27T06:13:34;26.38;;;9.63;;
5414;SDS011;2730;51.512;7.504;2022-09-27T06:16:02;17.38;;;8.55;;
5414;SDS011;2730;51.512;7.504;2022-09-27T06:18:29;13.25;;;8.18;;
5414;SDS011;2730;51.512;7.504;2022-09-27T06:20:57;15.40;;;9.13;;
5414;SDS011;2730;51.512;7.504;2022-09-27T06:23:24;13.05;;;8.75;;
5414;SDS011;2730;51.512;7.504;2022-09-27T06:25:51;14.52;;;8.45;;
5414;SDS011;2730;51.512;7.504;2022-09-27T06:28:21;11.20;;;6.93;;
5414;SDS011;2730;51.512;7.504;2022-09-27T06:30:48;9.82;;;6.70;;
5414;SDS011;2730;51.512;7.504;2022-09-27T06:33:17;9.02;;;6.45;;
5414;SDS011;2730;51.512;7.504;2022-09-27T06:35:45;17.25;;;6.43;;
5414;SDS011;2730;51.512;7.504;2022-09-27T06:38:15;19.05;;;7.25;;
5414;SDS011;2730;51.512;7.504;2022-09-27T06:40:44;13.20;;;6.90;;
5414;SDS011;2730;51.512;7.504;2022-09-27T06:43:12;12.27;;;5.78;;
5414;SDS011;2730;51.512;7.504;2022-09-27T06:45:41;9.52;;;6.25;;
5414;SDS011;2730;51.512;7.504;2022-09-27T06:48:08;13.77;;;6.47;;
5414;SDS011;2730;51.512;7.504;2022-09-27T06:50:39;11.57;;;5.38;;
5414;SDS011;2730;51.512;7.504;2022-09-27T06:53:08;11.82;;;5.65;;
5414;SDS011;2730;51.512;7.504;2022-09-27T06:55:37;12.55;;;5.50;;
5414;SDS011;2730;51.512;7.504;2022-09-27T06:58:04;7.95;;;5.22;;
5414;SDS011;2730;51.512;7.504;2022-09-27T07:00:51;8.45;;;5.47;;
5414;SDS011;2730;51.512;7.504;2022-09-27T07:03:18;10.25;;;4.45;;
5414;SDS011;2730;51.512;7.504;2022-09-27T07:05:53;10.45;;;4.80;;
5414;SDS011;2730;51.512;7.504;2022-09-27T07:08:21;10.90;;;4.78;;
5414;SDS011;2730;51.512;7.504;2022-09-27T07:10:53;8.48;;;4.13;;
5414;SDS011;2730;51.512;7.504;2022-09-27T07:13:21;17.25;;;4.80;;
5414;SDS011;2730;51.512;7.504;2022-09-27T07:15:48;6.80;;;3.78;;
5414;SDS011;2730;51.512;7.504;2022-09-27T07:18:16;3.20;;;3.00;;
5414;SDS011;2730;51.512;7.504;2022-09-27T07:20:43;4.13;;;2.70;;
5414;SDS011;2730;51.512;7.504;2022-09-27T07:23:10;5.03;;;3.38;;
5414;SDS011;2730;51.512;7.504;2022-09-27T07:25:39;7.25;;;3.30;;
5414;SDS011;2730;51.512;7.504;2022-09-27T07:28:07;3.92;;;3.03;;
5414;SDS011;2730;51.512;7.504;2022-09-27T07:30:36;12.32;;;4.10;;
5414;SDS011;2730;51.512;7.504;2022-09-27T07:33:04;7.15;;;3.67;;
5414;SDS011;2730;51.512;7.504;2022-09-27T07:35:33;4.53;;;3.20;;
5414;SDS011;2730;51.512;7.504;2022-09-27T07:38:04;6.20;;;3.42;;
5414;SDS011;2730;51.512;7.504;2022-09-27T07:40:32;5.70;;;3.45;;
5414;SDS011;2730;51.512;7.504;2022-09-27T07:43:01;13.88;;;4.25;;
5414;SDS011;2730;51.512;7.504;2022-09-27T07:45:29;4.55;;;3.55;;
5414;SDS011;2730;51.512;7.504;2022-09-27T07:47:57;5.05;;;3.92;;
5414;SDS011;2730;51.512;7.504;2022-09-27T07:50:24;4.53;;;3.10;;
5414;SDS011;2730;51.512;7.504;2022-09-27T07:52:54;5.05;;;3.45;;
5414;SDS011;2730;51.512;7.504;2022-09-27T07:55:21;4.70;;;2.80;;
5414;SDS011;2730;51.512;7.504;2022-09-27T07:57:48;3.70;;;3.40;;
5414;SDS011;2730;51.512;7.504;2022-09-27T08:00:16;4.72;;;2.83;;
5414;SDS011;2730;51.512;7.504;2022-09-27T08:02:45;2.75;;;2.55;;
5414;SDS011;2730;51.512;7.504;2022-09-27T08:05:12;9.50;;;2.88;;
5414;SDS011;2730;51.512;7.504;2022-09-27T08:07:39;3.40;;;2.90;;
5414;SDS011;2730;51.512;7.504;2022-09-27T08:10:08;9.80;;;3.08;;
5414;SDS011;2730;51.512;7.504;2022-09-27T08:12:35;3.15;;;2.17;;
5414;SDS011;2730;51.512;7.504;2022-09-27T08:15:03;3.30;;;3.00;;
5414;SDS011;2730;51.512;7.504;2022-09-27T08:17:30;3.20;;;2.92;;
5414;SDS011;2730;51.512;7.504;2022-09-27T08:19:58;5.68;;;2.47;;
5414;SDS011;2730;51.512;7.504;2022-09-27T08:22:28;6.35;;;2.70;;
5414;SDS011;2730;51.512;7.504;2022-09-27T08:24:55;3.35;;;3.00;;
5414;SDS011;2730;51.512;7.504;2022-09-27T08:27:23;3.42;;;2.20;;
5414;SDS011;2730;51.512;7.504;2022-09-27T08:29:50;2.90;;;2.65;;
5414;SDS011;2730;51.512;7.504;2022-09-27T08:32:17;6.70;;;3.85;;
5414;SDS011;2730;51.512;7.504;2022-09-27T08:34:44;5.82;;;2.78;;
5414;SDS011;2730;51.512;7.504;2022-09-27T08:37:11;5.43;;;3.28;;
5414;SDS011;2730;51.512;7.504;2022-09-27T08:39:37;3.15;;;2.85;;
5414;SDS011;2730;51.512;7.504;2022-09-27T08:42:05;7.68;;;3.60;;
5414;SDS011;2730;51.512;7.504;2022-09-27T08:44:45;12.18;;;3.75;;
5414;SDS011;2730;51.512;7.504;2022-09-27T08:47:21;5.32;;;2.92;;
5414;SDS011;2730;51.512;7.504;2022-09-27T08:49:56;4.55;;;3.20;;
5414;SDS011;2730;51.512;7.504;2022-09-27T08:52:29;3.67;;;2.90;;
5414;SDS011;2730;51.512;7.504;2022-09-27T08:55:02;5.07;;;3.05;;
5414;SDS011;2730;51.512;7.504;2022-09-27T08:57:31;3.05;;;2.78;;
5414;SDS011;2730;51.512;7.504;2022-09-27T09:00:05;4.72;;;3.80;;
5414;SDS011;2730;51.512;7.504;2022-09-27T09:02:36;3.75;;;3.38;;
5414;SDS011;2730;51.512;7.504;2022-09-27T09:05:05;5.25;;;3.60;;
5414;SDS011;2730;51.512;7.504;2022-09-27T09:07:41;4.47;;;3.47;;
5414;SDS011;2730;51.512;7.504;2022-09-27T09:10:22;3.65;;;3.42;;
5414;SDS011;2730;51.512;7.504;2022-09-27T09:13:16;5.25;;;3.38;;
5414;SDS011;2730;51.512;7.504;2022-09-27T09:15:56;6.82;;;2.80;;
5414;SDS011;2730;51.512;7.504;2022-09-27T09:18:30;4.38;;;2.63;;
5414;SDS011;2730;51.512;7.504;2022-09-27T09:21:10;2.60;;;2.40;;
5414;SDS011;2730;51.512;7.504;2022-09-27T09:23:53;4.32;;;2.55;;
5414;SDS011;2730;51.512;7.504;2022-09-27T09:26:37;2.78;;;2.10;;
5414;SDS011;2730;51.512;7.504;2022-09-27T09:29:13;3.05;;;2.10;;
5414;SDS011;2730;51.512;7.504;2022-09-27T09:31:52;4.00;;;2.10;;
5414;SDS011;2730;51.512;7.504;2022-09-27T09:34:27;3.53;;;2.00;;
5414;SDS011;2730;51.512;7.504;2022-09-27T09:37:00;2.90;;;2.00;;
5414;SDS011;2730;51.512;7.504;2022-09-27T09:39:32;1.80;;;1.70;;
5414;SDS011;2730;51.512;7.504;2022-09-27T09:42:06;4.30;;;2.20;;
5414;SDS011;2730;51.512;7.504;2022-09-27T09:44:40;2.15;;;2.05;;
5414;SDS011;2730;51.512;7.504;2022-09-27T09:47:13;2.25;;;2.05;;
5414;SDS011;2730;51.512;7.504;2022-09-27T09:49:47;2.20;;;1.70;;
5414;SDS011;2730;51.512;7.504;2022-09-27T09:52:17;1.83;;;1.73;;
5414;SDS011;2730;51.512;7.504;2022-09-27T09:54:47;3.63;;;1.85;;
5414;SDS011;2730;51.512;7.504;2022-09-27T09:57:17;3.88;;;2.13;;
5414;SDS011;2730;51.512;7.504;2022-09-27T09:59:50;2.30;;;2.20;;
5414;SDS011;2730;51.512;7.504;2022-09-27T10:02:25;2.10;;;1.85;;
5414;SDS011;2730;51.512;7.504;2022-09-27T10:04:56;2.50;;;2.20;;
5414;SDS011;2730;51.512;7.504;2022-09-27T10:07:23;4.22;;;2.17;;
5414;SDS011;2730;51.512;7.504;2022-09-27T10:09:52;5.10;;;1.95;;
5414;SDS011;2730;51.512;7.504;2022-09-27T10:12:22;3.15;;;1.90;;
5414;SDS011;2730;51.512;7.504;2022-09-27T10:14:49;2.00;;;1.80;;
5414;SDS011;2730;51.512;7.504;2022-09-27T10:17:19;5.03;;;2.22;;
5414;SDS011;2730;51.512;7.504;2022-09-27T10:19:51;2.33;;;2.13;;
5414;SDS011;2730;51.512;7.504;2022-09-27T10:22:21;2.65;;;2.10;;
5414;SDS011;2730;51.512;7.504;2022-09-27T10:24:53;5.93;;;2.00;;
5414;SDS011;2730;51.512;7.504;2022-09-27T10:27:22;2.15;;;1.95;;
5414;SDS011;2730;51.512;7.504;2022-09-27T10:29:55;2.03;;;1.85;;
5414;SDS011;2730;51.512;7.504;2022-09-27T10:32:23;2.30;;;2.10;;
5414;SDS011;2730;51.512;7.504;2022-09-27T10:34:56;1.73;;;1.63;;
5414;SDS011;2730;51.512;7.504;2022-09-27T10:37:47;1.50;;;1.40;;
5414;SDS011;2730;51.512;7.504;2022-09-27T10:40:25;2.45;;;1.50;;
5414;SDS011;2730;51.512;7.504;2022-09-27T10:42:57;2.20;;;1.40;;
5414;SDS011;2730;51.512;7.504;2022-09-27T10:45:26;1.60;;;1.40;;
5414;SDS011;2730;51.512;7.504;2022-09-27T10:47:55;1.85;;;1.50;;
5414;SDS011;2730;51.512;7.504;2022-09-27T10:50:25;4.03;;;1.55;;
5414;SDS011;2730;51.512;7.504;2022-09-27T10:53:02;1.67;;;1.58;;
5414;SDS011;2730;51.512;7.504;2022-09-27T10:55:33;1.33;;;1.23;;
5414;SDS011;2730;51.512;7.504;2022-09-27T10:58:01;3.33;;;1.75;;
5414;SDS011;2730;51.512;7.504;2022-09-27T11:00:30;2.72;;;1.92;;
5414;SDS011;2730;51.512;7.504;2022-09-27T11:03:00;2.00;;;1.70;;
5414;SDS011;2730;51.512;7.504;2022-09-27T11:05:33;2.03;;;1.50;;
5414;SDS011;2730;51.512;7.504;2022-09-27T11:08:17;2.40;;;2.20;;
5414;SDS011;2730;51.512;7.504;2022-09-27T11:10:59;2.22;;;1.88;;
5414;SDS011;2730;51.512;7.504;2022-09-27T11:13:32;2.80;;;2.10;;
5414;SDS011;2730;51.512;7.504;2022-09-27T11:16:14;4.03;;;2.20;;
5414;SDS011;2730;51.512;7.504;2022-09-27T11:18:58;4.63;;;1.80;;
5414;SDS011;2730;51.512;7.504;2022-09-27T11:21:36;2.65;;;2.03;;
5414;SDS011;2730;51.512;7.504;2022-09-27T11:24:15;1.65;;;1.55;;
5414;SDS011;2730;51.512;7.504;2022-09-27T11:26:56;2.97;;;1.80;;
5414;SDS011;2730;51.512;7.504;2022-09-27T11:29:34;2.97;;;1.70;;
5414;SDS011;2730;51.512;7.504;2022-09-27T11:32:18;1.55;;;1.45;;
5414;SDS011;2730;51.512;7.504;2022-09-27T11:34:59;2.15;;;1.95;;
5414;SDS011;2730;51.512;7.504;2022-09-27T11:37:41;2.85;;;2.65;;
5414;SDS011;2730;51.512;7.504;2022-09-27T11:40:20;1.65;;;1.55;;
5414;SDS011;2730;51.512;7.504;2022-09-27T11:45:52;2.38;;;1.70;;
5414;SDS011;2730;51.512;7.504;2022-09-27T11:48:30;1.40;;;1.30;;
5414;SDS011;2730;51.512;7.504;2022-09-27T11:51:25;1.85;;;1.75;;
5414;SDS011;2730;51.512;7.504;2022-09-27T11:56:48;2.80;;;1.75;;
5414;SDS011;2730;51.512;7.504;2022-09-27T12:02:18;1.00;;;1.00;;
5414;SDS011;2730;51.512;7.504;2022-09-27T12:05:02;2.35;;;1.65;;
5414;SDS011;2730;51.512;7.504;2022-09-27T12:07:42;1.65;;;1.10;;
5414;SDS011;2730;51.512;7.504;2022-09-27T12:10:17;2.15;;;1.45;;
5414;SDS011;2730;51.512;7.504;2022-09-27T12:12:48;1.30;;;1.20;;
5414;SDS011;2730;51.512;7.504;2022-09-27T12:15:18;1.30;;;1.20;;
5414;SDS011;2730;51.512;7.504;2022-09-27T12:17:47;1.65;;;1.17;;
5414;SDS011;2730;51.512;7.504;2022-09-27T12:20:18;2.47;;;1.30;;
5414;SDS011;2730;51.512;7.504;2022-09-27T12:22:50;3.65;;;1.30;;
5414;SDS011;2730;51.512;7.504;2022-09-27T12:25:22;1.80;;;1.70;;
5414;SDS011;2730;51.512;7.504;2022-09-27T12:27:53;1.58;;;1.48;;
5414;SDS011;2730;51.512;7.504;2022-09-27T12:30:26;4.95;;;1.40;;
5414;SDS011;2730;51.512;7.504;2022-09-27T12:32:56;2.47;;;1.40;;
5414;SDS011;2730;51.512;7.504;2022-09-27T12:35:31;1.65;;;1.55;;
5414;SDS011;2730;51.512;7.504;2022-09-27T12:38:02;5.00;;;1.75;;
5414;SDS011;2730;51.512;7.504;2022-09-27T12:40:37;1.30;;;1.20;;
5414;SDS011;2730;51.512;7.504;2022-09-27T12:43:08;3.35;;;1.45;;
5414;SDS011;2730;51.512;7.504;2022-09-27T12:45:43;2.63;;;1.60;;
5414;SDS011;2730;51.512;7.504;2022-09-27T12:48:18;5.57;;;1.88;;
5414;SDS011;2730;51.512;7.504;2022-09-27T12:50:54;5.05;;;1.73;;
5414;SDS011;2730;51.512;7.504;2022-09-27T12:53:27;2.97;;;1.80;;
5414;SDS011;2730;51.512;7.504;2022-09-27T12:56:11;2.55;;;1.80;;
5414;SDS011;2730;51.512;7.504;2022-09-27T12:59:02;3.95;;;1.80;;
5414;SDS011;2730;51.512;7.504;2022-09-27T13:01:49;3.45;;;1.75;;
5414;SDS011;2730;51.512;7.504;2022-09-27T13:04:29;1.83;;;1.73;;
5414;SDS011;2730;51.512;7.504;2022-09-27T13:07:09;2.38;;;1.88;;
5414;SDS011;2730;51.512;7.504;2022-09-27T13:09:56;2.53;;;2.10;;
5414;SDS011;2730;51.512;7.504;2022-09-27T13:12:34;5.25;;;2.50;;
5414;SDS011;2730;51.512;7.504;2022-09-27T13:15:04;1.45;;;1.35;;
5414;SDS011;2730;51.512;7.504;2022-09-27T13:17:48;3.70;;;2.50;;
5414;SDS011;2730;51.512;7.504;2022-09-27T13:29:22;2.35;;;2.15;;
5414;SDS011;2730;51.512;7.504;2022-09-27T13:34:52;1.45;;;1.35;;
5414;SDS011;2730;51.512;7.504;2022-09-27T13:37:22;2.35;;;1.67;;
5414;SDS011;2730;51.512;7.504;2022-09-27T13:40:10;2.75;;;1.55;;
5414;SDS011;2730;51.512;7.504;2022-09-27T13:42:54;2.10;;;2.00;;
5414;SDS011;2730;51.512;7.504;2022-09-27T13:45:33;1.67;;;1.58;;
5414;SDS011;2730;51.512;7.504;2022-09-27T13:48:06;2.70;;;2.50;;
5414;SDS011;2730;51.512;7.504;2022-09-27T13:50:38;2.83;;;2.60;;
5414;SDS011;2730;51.512;7.504;2022-09-27T13:53:16;2.38;;;2.17;;
5414;SDS011;2730;51.512;7.504;2022-09-27T13:55:49;3.03;;;2.78;;
5414;SDS011;2730;51.512;7.504;2022-09-27T13:58:29;4.78;;;2.53;;
5414;SDS011;2730;51.512;7.504;2022-09-27T14:01:10;2.90;;;2.65;;
5414;SDS011;2730;51.512;7.504;2022-09-27T14:03:52;2.90;;;2.70;;
5414;SDS011;2730;51.512;7.504;2022-09-27T14:06:23;12.65;;;5.57;;
5414;SDS011;2730;51.512;7.504;2022-09-27T14:08:52;15.63;;;6.60;;
5414;SDS011;2730;51.512;7.504;2022-09-27T14:11:24;5.22;;;3.00;;
5414;SDS011;2730;51.512;7.504;2022-09-27T14:13:53;5.35;;;2.72;;
5414;SDS011;2730;51.512;7.504;2022-09-27T14:16:23;2.40;;;2.20;;
5414;SDS011;2730;51.512;7.504;2022-09-27T14:18:54;2.83;;;2.20;;
5414;SDS011;2730;51.512;7.504;2022-09-27T14:21:27;2.85;;;2.28;;
5414;SDS011;2730;51.512;7.504;2022-09-27T14:26:47;3.90;;;2.25;;
5414;SDS011;2730;51.512;7.504;2022-09-27T14:29:15;5.85;;;4.57;;
5414;SDS011;2730;51.512;7.504;2022-09-27T14:31:43;2.10;;;2.00;;
5414;SDS011;2730;51.512;7.504;2022-09-27T14:34:13;2.60;;;2.40;;
5414;SDS011;2730;51.512;7.504;2022-09-27T14:36:40;1.70;;;1.60;;
5414;SDS011;2730;51.512;7.504;2022-09-27T14:39:27;1.80;;;1.70;;
5414;SDS011;2730;51.512;7.504;2022-09-27T14:41:56;3.33;;;2.10;;
5414;SDS011;2730;51.512;7.504;2022-09-27T14:44:23;2.30;;;2.10;;
5414;SDS011;2730;51.512;7.504;2022-09-27T14:49:47;1.75;;;1.65;;
5414;SDS011;2730;51.512;7.504;2022-09-27T14:52:16;1.85;;;1.75;;
5414;SDS011;2730;51.512;7.504;2022-09-27T14:54:54;2.65;;;1.40;;
5414;SDS011;2730;51.512;7.504;2022-09-27T14:57:22;3.95;;;1.70;;
5414;SDS011;2730;51.512;7.504;2022-09-27T14:59:49;1.50;;;1.40;;
5414;SDS011;2730;51.512;7.504;2022-09-27T15:02:16;4.72;;;1.33;;
5414;SDS011;2730;51.512;7.504;2022-09-27T15:04:47;2.35;;;2.25;;
5414;SDS011;2730;51.512;7.504;2022-09-27T15:07:15;1.95;;;1.35;;
5414;SDS011;2730;51.512;7.504;2022-09-27T15:09:43;1.75;;;1.63;;
5414;SDS011;2730;51.512;7.504;2022-09-27T15:12:11;1.75;;;1.60;;
5414;SDS011;2730;51.512;7.504;2022-09-27T15:14:40;2.40;;;2.20;;
5414;SDS011;2730;51.512;7.504;2022-09-27T15:17:13;2.97;;;1.60;;
5414;SDS011;2730;51.512;7.504;2022-09-27T15:19:56;3.20;;;2.90;;
5414;SDS011;2730;51.512;7.504;2022-09-27T15:22:32;3.70;;;2.30;;
5414;SDS011;2730;51.512;7.504;2022-09-27T15:25:04;3.50;;;2.20;;
5414;SDS011;2730;51.512;7.504;2022-09-27T15:27:39;4.38;;;2.22;;
5414;SDS011;2730;51.512;7.504;2022-09-27T15:30:16;3.25;;;2.25;;
5414;SDS011;2730;51.512;7.504;2022-09-27T15:32:49;2.05;;;1.92;;
5414;SDS011;2730;51.512;7.504;2022-09-27T15:35:21;2.75;;;2.55;;
5414;SDS011;2730;51.512;7.504;2022-09-27T15:38:06;2.58;;;1.90;;
5414;SDS011;2730;51.512;7.504;2022-09-27T15:43:36;2.72;;;1.90;;
5414;SDS011;2730;51.512;7.504;2022-09-27T15:51:55;3.88;;;2.72;;
5414;SDS011;2730;51.512;7.504;2022-09-27T15:54:24;3.42;;;2.28;;
5414;SDS011;2730;51.512;7.504;2022-09-27T15:56:54;1.65;;;1.55;;
5414;SDS011;2730;51.512;7.504;2022-09-27T15:59:24;3.78;;;2.45;;
5414;SDS011;2730;51.512;7.504;2022-09-27T16:01:53;2.40;;;2.30;;
5414;SDS011;2730;51.512;7.504;2022-09-27T16:04:21;13.00;;;2.10;;
5414;SDS011;2730;51.512;7.504;2022-09-27T16:06:48;2.85;;;1.98;;
5414;SDS011;2730;51.512;7.504;2022-09-27T16:09:17;1.63;;;1.52;;
5414;SDS011;2730;51.512;7.504;2022-09-27T16:11:45;7.05;;;1.35;;
5414;SDS011;2730;51.512;7.504;2022-09-27T16:14:14;1.75;;;1.65;;
5414;SDS011;2730;51.512;7.504;2022-09-27T16:16:43;1.63;;;1.40;;
5414;SDS011;2730;51.512;7.504;2022-09-27T16:19:11;2.20;;;2.00;;
5414;SDS011;2730;51.512;7.504;2022-09-27T16:21:37;3.08;;;1.38;;
5414;SDS011;2730;51.512;7.504;2022-09-27T16:24:06;7.93;;;1.67;;
5414;SDS011;2730;51.512;7.504;2022-09-27T16:26:35;4.32;;;2.17;;
5414;SDS011;2730;51.512;7.504;2022-09-27T16:29:02;2.13;;;1.25;;
5414;SDS011;2730;51.512;7.504;2022-09-27T16:31:29;1.55;;;1.13;;
5414;SDS011;2730;51.512;7.504;2022-09-27T16:33:56;2.90;;;1.60;;
5414;SDS011;2730;51.512;7.504;2022-09-27T16:36:24;1.42;;;1.35;;
5414;SDS011;2730;51.512;7.504;2022-09-27T16:38:51;6.97;;;1.50;;
5414;SDS011;2730;51.512;7.504;2022-09-27T16:41:18;3.15;;;1.17;;
5414;SDS011;2730;51.512;7.504;2022-09-27T16:43:47;3.47;;;1.33;;
5414;SDS011;2730;51.512;7.504;2022-09-27T16:46:15;3.42;;;1.25;;
5414;SDS011;2730;51.512;7.504;2022-09-27T16:48:43;1.30;;;1.20;;
5414;SDS011;2730;51.512;7.504;2022-09-27T16:51:12;2.38;;;2.08;;
5414;SDS011;2730;51.512;7.504;2022-09-27T16:53:59;4.35;;;1.15;;
5414;SDS011;2730;51.512;7.504;2022-09-27T16:56:26;3.22;;;1.27;;
5414;SDS011;2730;51.512;7.504;2022-09-27T16:58:54;1.48;;;1.38;;
5414;SDS011;2730;51.512;7.504;2022-09-27T17:01:21;5.32;;;1.60;;
5414;SDS011;2730;51.512;7.504;2022-09-27T17:03:48;3.83;;;1.73;;
5414;SDS011;2730;51.512;7.504;2022-09-27T17:06:16;2.78;;;1.38;;
5414;SDS011;2730;51.512;7.504;2022-09-27T17:08:44;4.65;;;1.60;;
5414;SDS011;2730;51.512;7.504;2022-09-27T17:11:11;4.15;;;1.33;;
5414;SDS011;2730;51.512;7.504;2022-09-27T17:13:39;2.35;;;1.33;;
5414;SDS011;2730;51.512;7.504;2022-09-27T17:16:08;7.32;;;2.00;;
5414;SDS011;2730;51.512;7.504;2022-09-27T17:18:35;1.90;;;1.50;;
5414;SDS011;2730;51.512;7.504;2022-09-27T17:21:02;3.88;;;1.50;;
5414;SDS011;2730;51.512;7.504;2022-09-27T17:23:30;1.95;;;1.85;;
5414;SDS011;2730;51.512;7.504;2022-09-27T17:26:03;2.60;;;1.60;;
5414;SDS011;2730;51.512;7.504;2022-09-27T17:28:31;6.30;;;2.83;;
5414;SDS011;2730;51.512;7.504;2022-09-27T17:31:05;2.90;;;1.90;;
5414;SDS011;2730;51.512;7.504;2022-09-27T17:33:35;3.55;;;2.35;;
5414;SDS011;2730;51.512;7.504;2022-09-27T17:36:07;3.10;;;2.22;;
5414;SDS011;2730;51.512;7.504;2022-09-27T17:38:36;2.05;;;1.88;;
5414;SDS011;2730;51.512;7.504;2022-09-27T17:41:04;2.70;;;2.50;;
5414;SDS011;2730;51.512;7.504;2022-09-27T17:43:34;3.25;;;3.05;;
5414;SDS011;2730;51.512;7.504;2022-09-27T17:46:02;8.02;;;2.45;;
5414;SDS011;2730;51.512;7.504;2022-09-27T17:48:31;5.78;;;2.55;;
5414;SDS011;2730;51.512;7.504;2022-09-27T17:51:15;5.25;;;3.00;;
5414;SDS011;2730;51.512;7.504;2022-09-27T17:53:42;2.15;;;2.00;;
5414;SDS011;2730;51.512;7.504;2022-09-27T17:56:09;3.83;;;3.15;;
5414;SDS011;2730;51.512;7.504;2022-09-27T17:58:38;8.20;;;3.65;;
5414;SDS011;2730;51.512;7.504;2022-09-27T18:01:09;11.50;;;2.60;;
5414;SDS011;2730;51.512;7.504;2022-09-27T18:03:37;3.85;;;2.70;;
5414;SDS011;2730;51.512;7.504;2022-09-27T18:06:05;4.65;;;2.83;;
5414;SDS011;2730;51.512;7.504;2022-09-27T18:08:32;5.57;;;3.60;;
5414;SDS011;2730;51.512;7.504;2022-09-27T18:11:02;5.40;;;2.58;;
5414;SDS011;2730;51.512;7.504;2022-09-27T18:13:30;4.45;;;1.90;;
5414;SDS011;2730;51.512;7.504;2022-09-27T18:16:01;5.85;;;1.83;;
5414;SDS011;2730;51.512;7.504;2022-09-27T18:18:29;4.57;;;1.70;;
5414;SDS011;2730;51.512;7.504;2022-09-27T18:21:00;3.22;;;2.30;;
5414;SDS011;2730;51.512;7.504;2022-09-27T18:23:28;5.20;;;2.00;;
5414;SDS011;2730;51.512;7.504;2022-09-27T18:25:55;2.60;;;1.85;;
5414;SDS011;2730;51.512;7.504;2022-09-27T18:28:25;1.73;;;1.50;;
5414;SDS011;2730;51.512;7.504;2022-09-27T18:30:53;6.72;;;2.60;;
5414;SDS011;2730;51.512;7.504;2022-09-27T18:33:20;2.90;;;1.60;;
5414;SDS011;2730;51.512;7.504;2022-09-27T18:35:47;4.68;;;3.05;;
5414;SDS011;2730;51.512;7.504;2022-09-27T18:38:15;3.00;;;2.45;;
5414;SDS011;2730;51.512;7.504;2022-09-27T18:40:42;6.32;;;2.22;;
5414;SDS011;2730;51.512;7.504;2022-09-27T18:43:09;9.07;;;2.72;;
5414;SDS011;2730;51.512;7.504;2022-09-27T18:45:36;4.38;;;1.50;;
5414;SDS011;2730;51.512;7.504;2022-09-27T18:48:03;3.92;;;1.95;;
5414;SDS011;2730;51.512;7.504;2022-09-27T18:50:33;3.75;;;1.70;;
5414;SDS011;2730;51.512;7.504;2022-09-27T18:53:01;2.28;;;1.70;;
5414;SDS011;2730;51.512;7.504;2022-09-27T18:55:29;6.40;;;1.52;;
5414;SDS011;2730;51.512;7.504;2022-09-27T18:57:56;2.38;;;2.00;;
5414;SDS011;2730;51.512;7.504;2022-09-27T19:00:23;2.65;;;2.33;;
5414;SDS011;2730;51.512;7.504;2022-09-27T19:02:50;4.00;;;2.42;;
5414;SDS011;2730;51.512;7.504;2022-09-27T19:05:17;3.33;;;2.17;;
5414;SDS011;2730;51.512;7.504;2022-09-27T19:07:44;2.33;;;2.00;;
5414;SDS011;2730;51.512;7.504;2022-09-27T19:10:10;4.15;;;2.40;;
5414;SDS011;2730;51.512;7.504;2022-09-27T19:12:40;1.90;;;1.75;;
5414;SDS011;2730;51.512;7.504;2022-09-27T19:15:07;4.13;;;1.83;;
5414;SDS011;2730;51.512;7.504;2022-09-27T19:17:35;2.20;;;1.90;;
5414;SDS011;2730;51.512;7.504;2022-09-27T19:20:01;2.38;;;1.95;;
5414;SDS011;2730;51.512;7.504;2022-09-27T19:22:30;2.45;;;2.20;;
5414;SDS011;2730;51.512;7.504;2022-09-27T19:24:57;4.45;;;2.17;;
5414;SDS011;2730;51.512;7.504;2022-09-27T19:27:24;5.78;;;2.25;;
5414;SDS011;2730;51.512;7.504;2022-09-27T19:29:52;5.53;;;4.07;;
5414;SDS011;2730;51.512;7.504;2022-09-27T19:32:23;6.13;;;2.20;;
5414;SDS011;2730;51.512;7.504;2022-09-27T19:34:50;3.03;;;2.38;;
5414;SDS011;2730;51.512;7.504;2022-09-27T19:37:17;3.42;;;2.28;;
5414;SDS011;2730;51.512;7.504;2022-09-27T19:39:44;4.95;;;3.50;;
5414;SDS011;2730;51.512;7.504;2022-09-27T19:42:11;2.90;;;2.63;;
5414;SDS011;2730;51.512;7.504;2022-09-27T19:44:38;7.70;;;3.40;;
5414;SDS011;2730;51.512;7.504;2022-09-27T19:47:06;4.00;;;3.38;;
5414;SDS011;2730;51.512;7.504;2022-09-27T19:49:33;4.45;;;2.83;;
5414;SDS011;2730;51.512;7.504;2022-09-27T19:52:00;6.32;;;2.72;;
5414;SDS011;2730;51.512;7.504;2022-09-27T19:54:28;3.20;;;2.90;;
5414;SDS011;2730;51.512;7.504;2022-09-27T19:56:55;4.50;;;3.22;;
5414;SDS011;2730;51.512;7.504;2022-09-27T19:59:22;4.35;;;3.13;;
5414;SDS011;2730;51.512;7.504;2022-09-27T20:01:49;6.28;;;3.38;;
5414;SDS011;2730;51.512;7.504;2022-09-27T20:04:17;3.90;;;3.45;;
5414;SDS011;2730;51.512;7.504;2022-09-27T20:06:44;3.30;;;3.00;;
5414;SDS011;2730;51.512;7.504;2022-09-27T20:09:12;4.10;;;2.90;;
5414;SDS011;2730;51.512;7.504;2022-09-27T20:11:38;6.90;;;3.92;;
5414;SDS011;2730;51.512;7.504;2022-09-27T20:14:05;9.25;;;3.55;;
5414;SDS011;2730;51.512;7.504;2022-09-27T20:16:32;8.90;;;3.90;;
5414;SDS011;2730;51.512;7.504;2022-09-27T20:18:59;5.32;;;3.28;;
5414;SDS011;2730;51.512;7.504;2022-09-27T20:21:28;5.78;;;3.60;;
5414;SDS011;2730;51.512;7.504;2022-09-27T20:23:57;7.35;;;3.10;;
5414;SDS011;2730;51.512;7.504;2022-09-27T20:26:26;5.70;;;4.38;;
5414;SDS011;2730;51.512;7.504;2022-09-27T20:28:55;8.13;;;3.85;;
5414;SDS011;2730;51.512;7.504;2022-09-27T20:31:23;6.25;;;4.20;;
5414;SDS011;2730;51.512;7.504;2022-09-27T20:33:51;6.95;;;3.45;;
5414;SDS011;2730;51.512;7.504;2022-09-27T20:36:19;5.25;;;4.25;;
5414;SDS011;2730;51.512;7.504;2022-09-27T20:38:49;6.32;;;3.42;;
5414;SDS011;2730;51.512;7.504;2022-09-27T20:41:18;3.80;;;3.15;;
5414;SDS011;2730;51.512;7.504;2022-09-27T20:43:46;9.25;;;3.90;;
5414;SDS011;2730;51.512;7.504;2022-09-27T20:46:14;7.95;;;3.92;;
5414;SDS011;2730;51.512;7.504;2022-09-27T20:48:42;4.72;;;3.58;;
5414;SDS011;2730;51.512;7.504;2022-09-27T20:51:11;8.38;;;3.45;;
5414;SDS011;2730;51.512;7.504;2022-09-27T20:53:39;5.88;;;3.38;;
5414;SDS011;2730;51.512;7.504;2022-09-27T20:56:15;5.95;;;3.45;;
5414;SDS011;2730;51.512;7.504;2022-09-27T20:58:43;6.22;;;3.85;;
5414;SDS011;2730;51.512;7.504;2022-09-27T21:01:10;6.85;;;4.40;;
5414;SDS011;2730;51.512;7.504;2022-09-27T21:03:37;6.85;;;4.68;;
5414;SDS011;2730;51.512;7.504;2022-09-27T21:06:04;11.75;;;4.60;;
5414;SDS011;2730;51.512;7.504;2022-09-27T21:08:31;6.97;;;4.50;;
5414;SDS011;2730;51.512;7.504;2022-09-27T21:11:02;5.40;;;3.78;;